Details for EasyJet at LIRN




Go Back


Latest METAR
Local Time

LIRN 211420Z 05004KT 9999 SCT030 BKN050 09/02 Q0999 NOSIG

21/02/2018, 16:02:06

Description
Results
EasyJet Logo
Number of Pilots based at LIRN
0 Pilots Based here
Number of EasyJet Flights Departed from LIRN
2 Flights Departed
Number of EasyJet Flights Arrived at LIRN
2 Flights Arrived
Number of EasyJet Schedules Departing from LIRN
59 Schedules
Number of EasyJet Schedules Arriving at LIRN
60 Schedules
Number of EasyJet Schedules Departing from LIRN availible today
23 Schedules Today
Number of EasyJet Schedules Arriving at LIRN availible today
23 Schedules Today
Average Landing Rate at LIRN
-162 fpm
EasyJet Average Landing Rate at LIRN
-202 fpm
Total Fuel Purchased at LIRN by EasyJet
6,475.49 kgs / 14,275.87 lbs

Pilots Based at LIRN


Pilot ID
Pilot Name
Pilot Rank
No. of Flights
No. of Flying Hours
There are no pilots assigned to this hub!   Will you be the first?
Content